ADDS METAR Data INFO
IDs: Format: Raw Decoded Include TAF

Data at: 1054 UTC 18 Aug 2017

KJWY 181035Z AUTO 00000KT 10SM CLR 23/23 A3000 RMK AO2 T02310225
KJWY 181015Z AUTO 00000KT 10SM CLR 23/23 A2999 RMK AO2 T02320228
KJWY 180955Z AUTO 00000KT 10SM CLR 23/23 A3000 RMK AO2 T02320225
KJWY 180935Z AUTO 00000KT 10SM CLR 23/23 A3000 RMK AO2 T02310225
KJWY 180915Z AUTO 00000KT 10SM CLR 23/23 A3000 RMK AO2 T02340227
KJWY 180855Z AUTO 00000KT 10SM CLR 23/23 A3000 RMK AO2 T02310226
KJWY 180835Z AUTO 00000KT 10SM CLR 23/22 A3000 RMK AO2 T02320220
KJWY 180815Z AUTO 00000KT 10SM CLR 24/22 A3000 RMK AO2 T02350218
KJWY 180755Z AUTO 00000KT 10SM CLR 24/22 A3000 RMK AO2 T02350221
KJWY 180735Z AUTO 00000KT 10SM CLR 23/22 A3000 RMK AO2 T02330222
KJWY 180715Z AUTO 00000KT 10SM CLR 23/23 A3000 RMK AO2 T02320225
KJWY 180655Z AUTO 00000KT 10SM CLR 23/23 A3001 RMK AO2 T02310226
KJWY 180635Z AUTO 09003KT 10SM CLR 23/23 A3001 RMK AO2 T02330226
KJWY 180615Z AUTO 07003KT 10SM SCT120 24/23 A3001 RMK AO2 T02350225
KJWY 180555Z AUTO 00000KT 10SM SCT120 24/22 A3002 RMK AO2 T02350223 10280 20233 403460225
KJWY 180535Z AUTO 00000KT 10SM CLR 23/22 A3002 RMK AO2 T02340223
KJWY 180515Z AUTO 00000KT 10SM CLR 24/22 A3003 RMK AO2 T02360221
KJWY 180455Z AUTO 00000KT 10SM CLR 24/22 A3001 RMK AO2 T02360221
KJWY 180435Z AUTO 35004KT 10SM CLR 24/22 A3000 RMK AO2 T02350223
KJWY 180415Z AUTO 00000KT 10SM CLR 24/22 A3000 RMK AO2 T02400216
KJWY 180355Z AUTO 00000KT 10SM CLR 24/22 A3000 RMK AO2 T02350221
KJWY 180335Z AUTO 08003KT 10SM CLR 24/22 A3000 RMK AO2 T02350222
KJWY 180320Z AUTO 00000KT 10SM CLR 24/22 A3000 RMK AO2 T02370219
KJWY 180255Z AUTO 19004KT 10SM CLR 24/22 A3001 RMK AO2 T02360222
KJWY 180235Z AUTO 20003KT 10SM -DZ SCT048 SCT060 SCT075 24/22 A3002 RMK AO2 T02370222
KJWY 180215Z AUTO 00000KT 10SM -DZ SCT044 SCT060 BKN120 24/22 A3003 RMK AO2 T02360222
KJWY 180155Z AUTO 19009KT 10SM -RA SCT046 SCT120 24/22 A3004 RMK AO2 T02380223
KJWY 180135Z AUTO 20006KT 10SM -RA SCT120 24/22 A3003 RMK AO2 T02420219
KJWY 180115Z AUTO 25005KT 10SM -RA CLR 25/21 A3001 RMK AO2 T02500212
KJWY 180055Z AUTO 25011G16KT 10SM CLR 25/21 A2999 RMK AO2 T02540208
KJWY 180035Z AUTO 25007KT 10SM -RA SCT047 SCT050 27/22 A3000 RMK AO2 T02670217
KJWY 180015Z AUTO 29003KT 10SM -RA CLR 28/21 A2998 RMK AO2 T02750209
KJWY 172355Z AUTO 27004KT 10SM SCT048 28/21 A2998 RMK AO2 T02800208 10346 20280
KJWY 172335Z AUTO 28009KT 10SM SCT050 29/22 A2998 RMK AO2 T02870219
KJWY 172315Z AUTO 29008KT 10SM SCT055 31/23 A2997 RMK AO2 T03080226
KJWY 172255Z AUTO 23005KT 10SM CLR 32/23 A2997 RMK AO2 T03240227
KJWY 172235Z AUTO 22003KT 10SM CLR 33/22 A2995 RMK AO2 T03280221
KJWY 172215Z AUTO 19008KT 10SM CLR 34/22 A2995 RMK AO2 T03360216
KJWY 172155Z AUTO 15005KT 10SM CLR 35/23 A2995 RMK AO2 T03450225
KJWY 172135Z AUTO 19007KT 10SM CLR 34/23 A2996 RMK AO2 T03440228
KJWY 172115Z AUTO 18006KT 10SM CLR 34/24 A2996 RMK AO2 T03430236
KJWY 172055Z AUTO 18008KT 10SM CLR 34/24 A2998 RMK AO2 T03380239
KJWY 172035Z AUTO 17009KT 10SM CLR 34/24 A2998 RMK AO2 T03350242
KJWY 172015Z AUTO 18009KT 10SM SCT060 34/24 A2999 RMK AO2 T03360241
KJWY 171955Z AUTO 16007KT 140V220 10SM SCT060 SCT070 34/24 A3000 RMK AO2 T03380241
KJWY 171935Z AUTO 18010G17KT 10SM SCT070 34/25 A3000 RMK AO2 T03360245
KJWY 171915Z AUTO 19011KT 10SM SCT036 SCT042 SCT048 33/25 A3001 RMK AO2 T03330247
KJWY 171855Z AUTO 19015G18KT 10SM SCT038 BKN046 33/25 A3001 RMK AO2 T03270247
KJWY 171835Z AUTO 18013G17KT 10SM SCT036 SCT042 SCT049 33/25 A3001 RMK AO2 T03300251
KJWY 171815Z AUTO 17010G14KT 10SM OVC038 33/25 A3002 RMK AO2 T03300249
KJWY 171755Z AUTO 18008KT 10SM BKN038 BKN044 33/25 A3003 RMK AO2 T03300246 10330 20225
KJWY 171735Z AUTO 21008KT 10SM SCT031 BKN038 BKN043 33/25 A3003 RMK AO2 T03250245
KJWY 171715Z AUTO 21006KT 10SM BKN033 OVC090 32/25 A3003 RMK AO2 T03190252
KJWY 171655Z AUTO 15004KT 10SM BKN090 30/25 A3004 RMK AO2 T03040250
KJWY 171635Z AUTO 16007KT 10SM SCT090 29/25 A3004 RMK AO2 T02930254
KJWY 171615Z AUTO 16006KT 10SM CLR 28/25 A3003 RMK AO2 T02800249
KJWY 171555Z AUTO 14006KT 10SM SCT022 27/25 A3004 RMK AO2 T02700246
KJWY 171535Z AUTO 12004KT 10SM SCT022 25/24 A3004 RMK AO2 T02530240
KJWY 171515Z AUTO 11003KT 10SM BKN022 BKN041 24/24 A3004 RMK AO2 T02410238
KJWY 171455Z AUTO 10004KT 10SM BKN022 BKN043 BKN050 23/23 A3004 RMK AO2 T02340234
KJWY 171435Z AUTO 09006KT 10SM BKN020 BKN025 OVC049 23/23 A3004 RMK AO2 T02300230
KJWY 171420Z AUTO 08005KT 10SM OVC020 23/23 A3004 RMK AO2 T02270227
KJWY 171355Z AUTO 07008KT 10SM OVC020 23/23 A3004 RMK AO2 T02270227
KJWY 171335Z AUTO 05006KT 10SM OVC016 23/23 A3003 RMK AO2 T02260225
KJWY 171315Z AUTO 04005KT 10SM OVC016 23/22 A3003 RMK AO2 T02260224
KJWY 171255Z AUTO 04007KT 10SM BKN018 BKN023 OVC033 23/22 A3002 RMK AO2 T02300220
KJWY 171235Z AUTO 00000KT 7SM BKN020 BKN033 OVC060 26/24 A3001 RMK AO2 T02550242
KJWY 171215Z AUTO 00000KT 5SM RA SCT018 BKN065 OVC080 26/24 A3000 RMK AO2 T02600238
KJWY 171155Z AUTO 18003KT 10SM SCT020 SCT070 BKN080 26/24 A3000 RMK AO2 T02590237 10289 20258
KJWY 171135Z AUTO 18005KT 10SM -RA SCT020 SCT055 BKN080 26/24 A2999 RMK AO2 T02610236
KJWY 171115Z AUTO 18008KT 10SM CLR 27/24 A2998 RMK AO2 T02650235
KJWY 171055Z AUTO 18011G14KT 10SM CLR 27/24 A2997 RMK AO2 T02650235
KJWY 171035Z AUTO 17009G14KT 10SM SCT022 SCT070 SCT080 27/24 A2996 RMK AO2 T02650235
KJWY 171015Z AUTO 19008KT 10SM BKN022 OVC080 27/23 A2997 RMK AO2 T02670233
KJWY 170955Z AUTO 22007KT 10SM SCT022 SCT080 BKN110 27/23 A2998 RMK AO2 T02670233
KJWY 170935Z AUTO 19011G15KT 10SM SCT090 BKN110 27/23 A2996 RMK AO2 T02670233
KJWY 170915Z AUTO 17010G14KT 10SM SCT085 BKN110 27/23 A2996 RMK AO2 T02690232
KJWY 170855Z AUTO 17011KT 10SM SCT120 27/23 A2995 RMK AO2 T02700231
KJWY 170835Z AUTO 17009KT 10SM BKN120 27/23 A2996 RMK AO2 T02720230
KJWY 170815Z AUTO 17010G15KT 10SM OVC110 28/23 A2998 RMK AO2 T02750229
KJWY 170755Z AUTO 17009KT 10SM BKN110 28/23 A2998 RMK AO2 T02750227
KJWY 170735Z AUTO 17008KT 10SM OVC110 28/23 A2997 RMK AO2 T02770225
KJWY 170715Z AUTO 17008KT 10SM OVC100 28/23 A2996 RMK AO2 T02800225
KJWY 170655Z AUTO 17007KT 10SM BKN100 28/22 A2995 RMK AO2 T02820222
KJWY 170635Z AUTO 17010G15KT 10SM SCT100 29/22 A2994 RMK AO2 T02850221
KJWY 170615Z AUTO 17010KT 10SM SCT100 29/22 A2995 RMK AO2 T02860221
KJWY 170555Z AUTO 17010G16KT 10SM CLR 29/22 A2994 RMK AO2 T02890221 10336 20285 403450251
KJWY 170535Z AUTO 18009KT 10SM CLR 29/22 A2994 RMK AO2 T02900222
KJWY 170515Z AUTO 17009G14KT 10SM CLR 29/22 A2994 RMK AO2 T02910223
KJWY 170455Z AUTO 16009G14KT 10SM CLR 29/22 A2993 RMK AO2 T02910223
KJWY 170435Z AUTO 17007KT 10SM CLR 29/22 A2992 RMK AO2 T02920221
KJWY 170415Z AUTO 17008KT 10SM CLR 29/22 A2992 RMK AO2 T02940220
KJWY 170355Z AUTO 16009KT 10SM CLR 30/22 A2991 RMK AO2 T02950217
KJWY 170335Z AUTO 16007KT 10SM CLR 29/21 A2990 RMK AO2 T02900212
KJWY 170315Z AUTO 15004KT 10SM CLR 29/21 A2990 RMK AO2 T02860212
KJWY 170255Z AUTO 17004KT 10SM CLR 29/21 A2989 RMK AO2 T02900212
KJWY 170235Z AUTO 16005KT 10SM CLR 29/22 A2989 RMK AO2 T02920215
KJWY 170215Z AUTO 16006KT 10SM CLR 30/22 A2989 RMK AO2 T02960215
KJWY 170155Z AUTO 16006KT 10SM CLR 30/22 A2989 RMK AO2 T03000215
KJWY 170135Z AUTO 16005KT 10SM CLR 31/21 A2989 RMK AO2 T03050214
KJWY 170115Z AUTO 16005KT 10SM CLR 31/21 A2989 RMK AO2 T03110214
KJWY 170055Z AUTO 16005KT 10SM CLR 32/22 A2989 RMK AO2 T03170216
KJWY 170035Z AUTO 17006KT 10SM CLR 33/22 A2988 RMK AO2 T03250219
KJWY 170015Z AUTO 17007KT 10SM CLR 33/22 A2988 RMK AO2 T03310219
KJWY 162355Z AUTO 17008KT 10SM CLR 34/22 A2987 RMK AO2 T03370216 10345 20317
KJWY 162335Z AUTO 18011KT 10SM CLR 34/22 A2987 RMK AO2 T03440219
KJWY 162315Z AUTO 18009KT 10SM CLR 34/23 A2988 RMK AO2 T03440225
KJWY 162255Z AUTO 17006KT 10SM CLR 33/23 A2988 RMK AO2 T03340226